Station: Tuggeranong  

  Atmospheric Gas Attenuation - ITU Rec 676-11   ----------------- dB/100km -----------------
Date Time Temp RH % AH g/m3 Dew Point Wind Direction Speed kph Gust kph Barometer mB Rainfall Since 9am 24GHz 47GHz 76GHz 122GHz 134GHz 241GHz
02/09 19:40 15.3 67 8.75 9.2 6 9 1014.3 0 19.8 25.7 39.7 104.2 98.6 339.2
02/09 19:30 15.6 66 8.78 9.3 6 13 1014.2 0 19.9 25.7 39.7 104.1 98.6 339.3
02/09 19:20 15.6 65 8.64 9.1 4 9 1014.4 0 19.6 25.5 39.1 102.6 96.8 333.0
02/09 19:10 15.9 63 8.53 8.9 7 13 1014.2 0 19.3 25.2 38.5 101.1 95.0 326.7
02/09 19:00 16.3 63 8.74 9.3 7 11 1014.4 0 19.8 25.4 39.2 102.8 97.2 334.5
02/09 18:50 16.5 61 8.57 9 9 15 1014.5 0 19.4 25.1 38.4 100.8 94.8 326.1
02/09 18:40 16.7 60 8.53 8.9 11 20 1014.5 0 19.3 25.0 38.2 100.1 94.0 323.5
02/09 18:30 16.7 60 8.53 8.9 11 24 1014.5 0 19.3 25.0 38.2 100.1 94.0 323.5
02/09 18:20 16.7 59 8.38 8.7 11 15 1014.3 0 19.0 24.8 37.6 98.5 92.1 316.8
02/09 18:10 16.8 58 8.29 8.5 11 20 1014.2 0 18.8 24.6 37.2 97.5 90.9 312.4
02/09 18:00 16.8 58 8.29 8.5 11 24 1014.3 0 18.8 24.6 37.2 97.5 90.9 312.5
02/09 17:50 17 57 8.25 8.4 13 17 1014.1 0 18.7 24.5 36.9 96.8 90.1 309.9
02/09 17:40 17 56 8.1 8.2 13 20 1014.2 0 18.4 24.3 36.4 95.3 88.3 303.4
02/09 17:30 17.4 55 8.15 8.3 15 33 1014 0 18.5 24.2 36.4 95.3 88.4 304.0
02/09 17:20 17.4 56 8.3 8.5 17 28 1014.1 0 18.8 24.4 36.9 96.9 90.3 310.5
02/09 17:10 17.6 54 8.1 8.2 15 24 1014 0 18.3 24.1 36.1 94.6 87.6 301.0
02/09 17:00 17.9 53 8.09 8.2 20 32 1014 0 18.3 24.0 35.9 94.1 87.1 299.5
02/09 16:50 18.6 50 7.96 8 17 28 1013.8 0 18.0 23.6 35.1 92.0 84.8 291.3
02/09 16:40 18.8 51 8.21 8.5 15 24 1013.7 0 18.5 23.9 36.0 94.2 87.6 301.2
02/09 16:30 18.8 50 8.05 8.2 17 26 1013.7 0 18.2 23.7 35.4 92.7 85.6 294.4
02/09 16:20 18.7 49 7.84 7.8 17 30 1013.7 0 17.8 23.4 34.6 90.7 83.2 285.9
02/09 16:10 18.9 48 7.78 7.7 19 24 1013.6 0 17.6 23.3 34.3 89.9 82.3 282.6
02/09 16:00 19 47 7.66 7.4 19 30 1013.7 0 17.4 23.1 33.9 88.7 80.7 277.3
02/09 15:50 19.7 46 7.81 7.8 17 26 1013.6 0 17.6 23.1 34.1 89.3 81.8 281.1
02/09 15:40 19.5 45 7.55 7.3 22 33 1013.8 0 17.1 22.8 33.3 87.1 78.9 271.0
02/09 15:30 19.5 46 7.72 7.6 19 32 1014 0 17.5 23.0 33.9 88.7 81.0 278.1
02/09 15:20 19.8 43 7.34 6.9 20 30 1014.1 0 16.7 22.4 32.4 84.8 76.2 261.5
02/09 15:10 20 45 7.78 7.7 26 48 1014.1 0 17.6 23.0 33.9 88.7 81.2 278.9
02/09 15:00 19.6 44 7.43 7 22 37 1014.1 0 16.8 22.6 32.8 85.8 77.5 265.8
02/09 14:50 19.9 47 8.07 8.3 20 33 1014.1 0 18.2 23.4 35.0 91.6 84.7 291.3
02/09 14:40 19.4 46 7.67 7.5 22 39 1014 0 17.4 23.0 33.7 88.3 80.5 276.4
02/09 14:30 19.3 45 7.46 7.1 22 37 1014 0 16.9 22.7 33.0 86.4 78.1 268.0
02/09 14:20 19.7 43 7.3 6.8 24 35 1013.8 0 16.6 22.4 32.3 84.5 75.8 260.1
02/09 14:10 20.6 43 7.7 7.6 22 32 1014 0 17.4 22.7 33.4 87.3 79.6 273.6
02/09 14:00 19.4 44 7.34 6.8 24 43 1013.9 0 16.7 22.5 32.6 85.2 76.6 262.7
02/09 13:50 19.5 44 7.38 6.9 30 43 1013.8 0 16.7 22.5 32.7 85.5 77.0 264.0
02/09 13:40 20.4 41 7.25 6.7 24 37 1013.8 0 16.4 22.1 31.8 83.3 74.6 255.9
02/09 13:30 21.2 41 7.6 7.4 26 44 1014 0 17.1 22.4 32.8 85.8 77.9 267.5
02/09 13:20 20.9 42 7.65 7.5 22 37 1014.1 0 17.3 22.6 33.1 86.5 78.8 270.5
02/09 13:10 20.7 42 7.56 7.3 20 26 1014.3 0 17.1 22.5 32.8 85.9 77.9 267.6
02/09 13:00 21.1 43 7.92 8 22 35 1014.5 0 17.8 22.9 34.0 88.9 81.7 281.0
02/09 12:50 20.7 41 7.38 7 24 43 1014.7 0 16.7 22.3 32.2 84.3 75.9 260.4
02/09 12:40 20.7 44 7.92 8 19 35 1014.6 0 17.8 23.0 34.1 89.4 82.1 282.4
02/09 12:30 20.2 44 7.69 7.6 19 33 1015 0 17.4 22.8 33.5 87.8 80.0 274.7
02/09 12:20 20.8 53 9.6 10.9 17 26 1015.1 0 21.4 25.5 40.3 105.8 102.4 353.3
02/09 12:10 19.6 53 8.95 9.8 17 24 1015.5 0 20.0 24.9 38.4 100.8 95.9 330.3
02/09 12:00 19.3 56 9.29 10.3 17 28 1015.5 0 20.8 25.5 39.9 104.6 100.5 346.4
02/09 11:50 18.4 57 8.96 9.7 19 26 1015.8 0 20.1 25.2 39.0 102.5 97.5 335.8
02/09 11:40 18.2 57 8.86 9.5 17 30 1015.9 0 19.9 25.1 38.8 101.7 96.5 332.3
02/09 11:30 18.5 57 9.02 9.8 13 26 1016.1 0 20.2 25.3 39.2 103.0 98.1 338.1
02/09 11:20 18.3 57 8.91 9.6 15 22 1016.1 0 20.0 25.2 38.9 102.1 97.0 334.1
02/09 11:10 18.4 55 8.65 9.2 15 26 1016.2 0 19.5 24.8 37.9 99.4 93.6 322.4
02/09 11:00 19.1 53 8.69 9.3 17 26 1016.2 0 19.5 24.7 37.7 98.9 93.3 321.3
02/09 10:50 19.2 53 8.74 9.4 13 20 1016.3 0 19.6 24.7 37.9 99.3 93.8 323.1
02/09 10:40 18.7 55 8.8 9.5 15 28 1016.4 0 19.8 24.9 38.3 100.5 95.2 327.7
02/09 10:30 17.6 60 9 9.8 11 20 1016.6 0 20.3 25.6 39.6 104.0 99.1 341.2
02/09 10:20 16.9 62 8.92 9.6 11 19 1016.5 0 20.1 25.6 39.7 104.1 98.9 340.6
02/09 10:10 16.8 62 8.86 9.5 9 13 1016.6 0 20.0 25.6 39.5 103.6 98.3 338.4
02/09 10:00 16.4 62 8.65 9.1 11 15 1016.6 0 19.6 25.4 38.9 101.9 96.1 330.7
02/09 09:50 17.4 61 9.04 9.8 11 20 1016.7 0 20.3 25.7 39.9 104.7 99.8 343.9
02/09 09:40 16.7 61 8.67 9.1 13 20 1016.6 0 19.6 25.3 38.8 101.8 96.0 330.3
02/09 09:30 15.8 63 8.48 8.8 15 22 1016.7 0 19.2 25.3 38.5 100.9 94.6 325.5
02/09 09:20 16.2 63 8.69 9.2 13 19 1016.6 0 19.7 25.5 39.1 102.6 96.8 333.3
02/09 09:10 15.8 64 8.61 9 15 24 1016.6 0 19.5 25.5 39.0 102.3 96.3 331.4
02/09 09:00 15.6 63 8.38 8.6 13 24 1016.7 0 19.0 25.2 38.2 100.2 93.6 321.9
02/09 08:50 15.8 64 8.61 9 13 19 1016.6 0 19.5 25.5 39.0 102.3 96.3 331.4
02/09 08:40 15.6 64 8.51 8.8 9 19 1016.7 0 19.3 25.4 38.7 101.5 95.3 327.7
02/09 08:30 14.8 71 8.99 9.6 11 20 1016.8 0 20.4 26.4 41.0 107.7 102.6 353.1
02/09 08:20 14.2 71 8.67 9 9 17 1017 0 19.7 26.0 40.0 105.1 99.1 341.0
02/09 08:10 13.7 73 8.64 9 11 20 1016.8 0 19.7 26.1 40.2 105.4 99.3 341.8
02/09 08:00 13.5 74 8.66 9 9 15 1016.8 0 19.7 26.2 40.3 105.9 99.9 343.6
02/09 07:50 13 76 8.62 8.9 11 17 1016.6 0 19.7 26.3 40.4 106.1 100.0 343.8
02/09 07:40 12.6 78 8.63 8.9 9 13 1016.5 0 19.7 26.4 40.7 106.7 100.6 346.0
02/09 07:30 12 82 8.74 9 9 13 1016.6 0 20.0 26.8 41.4 108.8 102.9 354.0
02/09 07:20 11.2 85 8.62 8.8 6 11 1016.4 0 19.8 26.8 41.4 108.5 102.3 351.8
02/09 07:10 10.6 85 8.3 8.2 0 0 1016.4 0 19.1 26.5 40.3 105.8 98.7 339.1
02/09 07:00 10.6 86 8.4 8.4 2 7 1016.5 0 19.3 26.6 40.8 106.9 100.1 343.9
02/09 06:50 10.3 87 8.33 8.2 7 15 1016.3 0 19.2 26.6 40.6 106.5 99.5 341.8
02/09 06:40 9.9 89 8.31 8.2 7 11 1016.2 0 19.2 26.7 40.7 106.8 99.7 342.6
02/09 06:30 9.5 89 8.1 7.8 7 11 1016.2 0 18.7 26.4 40.1 105.0 97.3 334.2
02/09 06:20 9.5 88 8.01 7.6 4 7 1016.2 0 18.5 26.3 39.7 104.0 96.1 329.8
02/09 06:10 9.8 82 7.61 6.9 4 9 1016 0 17.7 25.5 37.9 99.2 90.3 309.5
02/09 06:00 10.7 82 8.06 7.8 0 6 1015.8 0 18.6 26.0 39.3 103.0 95.3 327.1
02/09 05:50 10.9 81 8.06 7.8 6 11 1015.5 0 18.6 25.9 39.2 102.7 95.0 326.2
02/09 05:40 11.4 80 8.21 8.1 9 15 1015.6 0 18.9 26.0 39.5 103.7 96.4 331.2
02/09 05:30 11.6 80 8.32 8.3 9 15 1015.7 0 19.1 26.2 39.9 104.6 97.6 335.5
02/09 05:20 11.7 80 8.37 8.4 9 17 1015.6 0 19.2 26.2 40.0 105.0 98.2 337.4
02/09 05:10 11.1 81 8.16 8 9 15 1015.6 0 18.8 26.1 39.5 103.5 96.1 330.1
02/09 05:00 11.2 80 8.11 7.9 9 15 1015.6 0 18.7 25.9 39.2 102.8 95.3 327.3
02/09 04:50 11.7 79 8.26 8.2 9 13 1015.3 0 19.0 26.0 39.6 103.8 96.7 332.2
02/09 04:40 11.9 77 8.16 8 7 15 1015.3 0 18.7 25.8 39.1 102.4 95.1 326.6
02/09 04:30 12.3 76 8.25 8.2 11 19 1015.5 0 18.9 25.8 39.2 102.9 95.8 329.2
02/09 04:20 12.2 78 8.42 8.5 11 20 1016.1 0 19.3 26.2 40.0 104.9 98.3 337.8
02/09 04:10 12 78 8.31 8.3 9 15 1016 0 19.1 26.1 39.6 104.0 97.0 333.4
02/09 04:00 11.6 77 8 7.7 6 11 1016 0 18.4 25.7 38.6 101.2 93.4 320.6
02/09 03:50 11.9 76 8.05 7.8 9 11 1015.9 0 18.5 25.7 38.6 101.3 93.7 321.7
02/09 03:40 11.9 75 7.94 7.6 9 15 1015.8 0 18.3 25.5 38.2 100.1 92.2 316.5
02/09 03:30 12.4 73 7.98 7.7 11 17 1015.7 0 18.3 25.4 38.1 99.9 92.1 316.3
02/09 03:20 12.9 69 7.78 7.4 9 15 1015.6 0 17.9 24.9 37.1 97.1 88.9 305.2
02/09 03:10 13 69 7.83 7.5 11 19 1015.7 0 18.0 25.0 37.2 97.5 89.5 307.1

Last Refresh: 02-Sep-2026 19:14:01

Bureau of Meteorology